sensor_id;sensor_type;location;lat;lon;timestamp;P1;durP1;ratioP1;P2;durP2;ratioP2
7965;SDS011;4028;43.272;26.932;2022-12-07T00:01:08;20.23;;;12.77;;
7965;SDS011;4028;43.272;26.932;2022-12-07T00:03:38;18.60;;;12.53;;
7965;SDS011;4028;43.272;26.932;2022-12-07T00:06:05;18.90;;;13.10;;
7965;SDS011;4028;43.272;26.932;2022-12-07T00:08:32;18.47;;;12.53;;
7965;SDS011;4028;43.272;26.932;2022-12-07T00:11:03;19.53;;;13.23;;
7965;SDS011;4028;43.272;26.932;2022-12-07T00:13:36;21.70;;;14.03;;
7965;SDS011;4028;43.272;26.932;2022-12-07T00:16:09;21.47;;;13.50;;
7965;SDS011;4028;43.272;26.932;2022-12-07T00:18:36;19.83;;;13.97;;
7965;SDS011;4028;43.272;26.932;2022-12-07T00:21:09;23.10;;;15.20;;
7965;SDS011;4028;43.272;26.932;2022-12-07T00:23:37;24.43;;;14.70;;
7965;SDS011;4028;43.272;26.932;2022-12-07T00:26:07;21.60;;;14.90;;
7965;SDS011;4028;43.272;26.932;2022-12-07T00:28:37;21.87;;;13.97;;
7965;SDS011;4028;43.272;26.932;2022-12-07T00:31:05;20.33;;;13.37;;
7965;SDS011;4028;43.272;26.932;2022-12-07T00:33:35;19.13;;;12.93;;
7965;SDS011;4028;43.272;26.932;2022-12-07T00:36:03;18.80;;;12.50;;
7965;SDS011;4028;43.272;26.932;2022-12-07T00:38:32;16.83;;;13.00;;
7965;SDS011;4028;43.272;26.932;2022-12-07T00:41:00;22.17;;;13.73;;
7965;SDS011;4028;43.272;26.932;2022-12-07T00:43:27;20.27;;;13.73;;
7965;SDS011;4028;43.272;26.932;2022-12-07T00:45:53;15.30;;;11.57;;
7965;SDS011;4028;43.272;26.932;2022-12-07T00:48:19;17.90;;;12.07;;
7965;SDS011;4028;43.272;26.932;2022-12-07T00:50:45;19.60;;;13.83;;
7965;SDS011;4028;43.272;26.932;2022-12-07T00:53:11;16.17;;;11.60;;
7965;SDS011;4028;43.272;26.932;2022-12-07T00:55:37;17.53;;;11.50;;
7965;SDS011;4028;43.272;26.932;2022-12-07T00:58:02;16.13;;;11.10;;
7965;SDS011;4028;43.272;26.932;2022-12-07T01:00:28;14.33;;;10.43;;
7965;SDS011;4028;43.272;26.932;2022-12-07T01:02:54;19.57;;;12.63;;
7965;SDS011;4028;43.272;26.932;2022-12-07T01:05:20;25.27;;;14.50;;
7965;SDS011;4028;43.272;26.932;2022-12-07T01:07:45;21.50;;;13.97;;
7965;SDS011;4028;43.272;26.932;2022-12-07T01:10:11;17.83;;;12.40;;
7965;SDS011;4028;43.272;26.932;2022-12-07T01:12:37;12.87;;;9.93;;
7965;SDS011;4028;43.272;26.932;2022-12-07T01:15:03;13.23;;;10.00;;
7965;SDS011;4028;43.272;26.932;2022-12-07T01:17:29;18.73;;;10.53;;
7965;SDS011;4028;43.272;26.932;2022-12-07T01:19:55;17.77;;;11.13;;
7965;SDS011;4028;43.272;26.932;2022-12-07T01:22:20;16.50;;;10.83;;
7965;SDS011;4028;43.272;26.932;2022-12-07T01:24:46;16.03;;;10.57;;
7965;SDS011;4028;43.272;26.932;2022-12-07T01:27:12;18.23;;;9.70;;
7965;SDS011;4028;43.272;26.932;2022-12-07T01:29:38;16.53;;;10.70;;
7965;SDS011;4028;43.272;26.932;2022-12-07T01:32:04;14.83;;;9.73;;
7965;SDS011;4028;43.272;26.932;2022-12-07T01:34:29;12.30;;;8.60;;
7965;SDS011;4028;43.272;26.932;2022-12-07T01:36:55;13.23;;;9.63;;
7965;SDS011;4028;43.272;26.932;2022-12-07T01:39:20;16.27;;;9.70;;
7965;SDS011;4028;43.272;26.932;2022-12-07T01:41:46;14.00;;;9.93;;
7965;SDS011;4028;43.272;26.932;2022-12-07T01:44:13;14.77;;;9.63;;
7965;SDS011;4028;43.272;26.932;2022-12-07T01:46:43;13.70;;;9.47;;
7965;SDS011;4028;43.272;26.932;2022-12-07T01:52:09;16.33;;;9.90;;
7965;SDS011;4028;43.272;26.932;2022-12-07T01:54:49;14.13;;;9.57;;
7965;SDS011;4028;43.272;26.932;2022-12-07T01:57:19;15.67;;;10.43;;
7965;SDS011;4028;43.272;26.932;2022-12-07T01:59:45;15.43;;;10.53;;
7965;SDS011;4028;43.272;26.932;2022-12-07T02:02:17;14.03;;;8.97;;
7965;SDS011;4028;43.272;26.932;2022-12-07T02:04:53;13.33;;;9.23;;
7965;SDS011;4028;43.272;26.932;2022-12-07T02:07:20;17.00;;;10.77;;
7965;SDS011;4028;43.272;26.932;2022-12-07T02:09:48;16.10;;;10.43;;
7965;SDS011;4028;43.272;26.932;2022-12-07T02:12:13;17.23;;;10.67;;
7965;SDS011;4028;43.272;26.932;2022-12-07T02:14:39;18.00;;;10.53;;
7965;SDS011;4028;43.272;26.932;2022-12-07T02:17:11;17.63;;;11.37;;
7965;SDS011;4028;43.272;26.932;2022-12-07T02:25:08;16.77;;;11.80;;
7965;SDS011;4028;43.272;26.932;2022-12-07T02:27:46;17.17;;;12.37;;
7965;SDS011;4028;43.272;26.932;2022-12-07T02:30:19;26.03;;;15.93;;
7965;SDS011;4028;43.272;26.932;2022-12-07T02:32:49;27.67;;;17.40;;
7965;SDS011;4028;43.272;26.932;2022-12-07T02:40:38;29.97;;;19.73;;
7965;SDS011;4028;43.272;26.932;2022-12-07T02:43:13;28.27;;;21.23;;
7965;SDS011;4028;43.272;26.932;2022-12-07T02:45:44;33.77;;;23.70;;
7965;SDS011;4028;43.272;26.932;2022-12-07T02:48:13;34.23;;;22.97;;
7965;SDS011;4028;43.272;26.932;2022-12-07T02:50:47;33.10;;;24.40;;
7965;SDS011;4028;43.272;26.932;2022-12-07T02:53:33;32.63;;;23.87;;
7965;SDS011;4028;43.272;26.932;2022-12-07T03:04:12;35.07;;;23.30;;
7965;SDS011;4028;43.272;26.932;2022-12-07T03:13:09;26.20;;;18.83;;
7965;SDS011;4028;43.272;26.932;2022-12-07T03:18:14;27.43;;;18.83;;
7965;SDS011;4028;43.272;26.932;2022-12-07T03:20:43;24.73;;;17.53;;
7965;SDS011;4028;43.272;26.932;2022-12-07T03:23:12;24.60;;;17.93;;
7965;SDS011;4028;43.272;26.932;2022-12-07T03:25:41;25.20;;;18.23;;
7965;SDS011;4028;43.272;26.932;2022-12-07T03:28:12;27.23;;;17.00;;
7965;SDS011;4028;43.272;26.932;2022-12-07T03:30:57;24.43;;;16.23;;
7965;SDS011;4028;43.272;26.932;2022-12-07T03:33:31;24.47;;;17.30;;
7965;SDS011;4028;43.272;26.932;2022-12-07T03:38:45;24.07;;;16.70;;
7965;SDS011;4028;43.272;26.932;2022-12-07T03:41:19;23.00;;;17.50;;
7965;SDS011;4028;43.272;26.932;2022-12-07T03:43:48;28.33;;;17.40;;
7965;SDS011;4028;43.272;26.932;2022-12-07T03:46:19;27.10;;;17.17;;
7965;SDS011;4028;43.272;26.932;2022-12-07T03:51:45;22.43;;;16.33;;
7965;SDS011;4028;43.272;26.932;2022-12-07T03:56:55;20.83;;;13.57;;
7965;SDS011;4028;43.272;26.932;2022-12-07T03:59:22;19.17;;;13.73;;
7965;SDS011;4028;43.272;26.932;2022-12-07T04:01:55;17.50;;;12.57;;
7965;SDS011;4028;43.272;26.932;2022-12-07T04:04:23;20.10;;;12.07;;
7965;SDS011;4028;43.272;26.932;2022-12-07T04:06:49;18.30;;;12.10;;
7965;SDS011;4028;43.272;26.932;2022-12-07T04:09:15;17.27;;;12.97;;
7965;SDS011;4028;43.272;26.932;2022-12-07T04:11:41;21.50;;;14.60;;
7965;SDS011;4028;43.272;26.932;2022-12-07T04:14:07;19.33;;;13.17;;
7965;SDS011;4028;43.272;26.932;2022-12-07T04:16:48;21.53;;;13.60;;
7965;SDS011;4028;43.272;26.932;2022-12-07T04:19:17;18.30;;;13.20;;
7965;SDS011;4028;43.272;26.932;2022-12-07T04:21:45;21.67;;;13.43;;
7965;SDS011;4028;43.272;26.932;2022-12-07T04:24:11;19.43;;;12.87;;
7965;SDS011;4028;43.272;26.932;2022-12-07T04:26:38;21.40;;;13.73;;
7965;SDS011;4028;43.272;26.932;2022-12-07T04:29:04;21.03;;;13.03;;
7965;SDS011;4028;43.272;26.932;2022-12-07T04:31:29;20.40;;;12.60;;
7965;SDS011;4028;43.272;26.932;2022-12-07T04:33:55;19.30;;;12.87;;
7965;SDS011;4028;43.272;26.932;2022-12-07T04:36:21;20.20;;;12.77;;
7965;SDS011;4028;43.272;26.932;2022-12-07T04:38:47;24.60;;;15.67;;
7965;SDS011;4028;43.272;26.932;2022-12-07T04:41:12;23.93;;;13.13;;
7965;SDS011;4028;43.272;26.932;2022-12-07T04:43:38;18.43;;;12.60;;
7965;SDS011;4028;43.272;26.932;2022-12-07T04:46:03;20.37;;;12.83;;
7965;SDS011;4028;43.272;26.932;2022-12-07T04:48:29;20.20;;;12.70;;
7965;SDS011;4028;43.272;26.932;2022-12-07T04:50:55;20.17;;;12.87;;
7965;SDS011;4028;43.272;26.932;2022-12-07T04:53:20;16.97;;;13.03;;
7965;SDS011;4028;43.272;26.932;2022-12-07T04:55:46;17.43;;;12.27;;
7965;SDS011;4028;43.272;26.932;2022-12-07T04:58:12;21.30;;;13.47;;
7965;SDS011;4028;43.272;26.932;2022-12-07T05:00:38;19.83;;;13.43;;
7965;SDS011;4028;43.272;26.932;2022-12-07T05:03:04;19.07;;;13.50;;
7965;SDS011;4028;43.272;26.932;2022-12-07T05:05:30;22.17;;;14.83;;
7965;SDS011;4028;43.272;26.932;2022-12-07T05:07:55;24.77;;;17.13;;
7965;SDS011;4028;43.272;26.932;2022-12-07T05:10:21;33.13;;;19.50;;
7965;SDS011;4028;43.272;26.932;2022-12-07T05:12:47;27.43;;;19.87;;
7965;SDS011;4028;43.272;26.932;2022-12-07T05:15:13;30.53;;;20.00;;
7965;SDS011;4028;43.272;26.932;2022-12-07T05:17:39;25.83;;;18.23;;
7965;SDS011;4028;43.272;26.932;2022-12-07T05:20:05;27.87;;;19.60;;
7965;SDS011;4028;43.272;26.932;2022-12-07T05:22:31;35.10;;;22.93;;
7965;SDS011;4028;43.272;26.932;2022-12-07T05:24:57;40.80;;;22.97;;
7965;SDS011;4028;43.272;26.932;2022-12-07T05:27:22;35.23;;;22.03;;
7965;SDS011;4028;43.272;26.932;2022-12-07T05:29:49;36.00;;;22.43;;
7965;SDS011;4028;43.272;26.932;2022-12-07T05:32:15;36.77;;;22.80;;
7965;SDS011;4028;43.272;26.932;2022-12-07T05:34:40;47.27;;;23.00;;
7965;SDS011;4028;43.272;26.932;2022-12-07T05:37:06;38.73;;;22.70;;
7965;SDS011;4028;43.272;26.932;2022-12-07T05:39:31;38.53;;;21.43;;
7965;SDS011;4028;43.272;26.932;2022-12-07T05:41:57;34.07;;;21.27;;
7965;SDS011;4028;43.272;26.932;2022-12-07T05:44:41;33.63;;;21.33;;
7965;SDS011;4028;43.272;26.932;2022-12-07T05:47:08;33.50;;;20.03;;
7965;SDS011;4028;43.272;26.932;2022-12-07T05:49:34;54.70;;;22.53;;
7965;SDS011;4028;43.272;26.932;2022-12-07T05:52:00;133.93;;;24.87;;
7965;SDS011;4028;43.272;26.932;2022-12-07T05:54:26;43.57;;;21.23;;
7965;SDS011;4028;43.272;26.932;2022-12-07T05:56:51;38.77;;;21.33;;
7965;SDS011;4028;43.272;26.932;2022-12-07T05:59:17;36.10;;;21.37;;
7965;SDS011;4028;43.272;26.932;2022-12-07T06:01:49;39.43;;;23.03;;
7965;SDS011;4028;43.272;26.932;2022-12-07T06:04:15;42.60;;;24.27;;
7965;SDS011;4028;43.272;26.932;2022-12-07T06:06:41;43.73;;;26.30;;
7965;SDS011;4028;43.272;26.932;2022-12-07T06:09:06;49.17;;;27.57;;
7965;SDS011;4028;43.272;26.932;2022-12-07T06:11:32;48.03;;;26.07;;
7965;SDS011;4028;43.272;26.932;2022-12-07T06:14:15;48.60;;;27.23;;
7965;SDS011;4028;43.272;26.932;2022-12-07T06:16:41;51.23;;;28.10;;
7965;SDS011;4028;43.272;26.932;2022-12-07T06:19:07;49.53;;;28.50;;
7965;SDS011;4028;43.272;26.932;2022-12-07T06:21:32;52.87;;;26.93;;
7965;SDS011;4028;43.272;26.932;2022-12-07T06:23:58;48.17;;;27.73;;
7965;SDS011;4028;43.272;26.932;2022-12-07T06:26:23;49.47;;;27.07;;
7965;SDS011;4028;43.272;26.932;2022-12-07T06:28:48;48.50;;;26.97;;
7965;SDS011;4028;43.272;26.932;2022-12-07T06:31:14;47.13;;;28.57;;
7965;SDS011;4028;43.272;26.932;2022-12-07T06:33:40;53.10;;;28.03;;
7965;SDS011;4028;43.272;26.932;2022-12-07T06:36:06;51.47;;;30.67;;
7965;SDS011;4028;43.272;26.932;2022-12-07T06:38:32;50.60;;;30.27;;
7965;SDS011;4028;43.272;26.932;2022-12-07T06:40:58;52.40;;;30.73;;
7965;SDS011;4028;43.272;26.932;2022-12-07T06:43:23;53.20;;;32.47;;
7965;SDS011;4028;43.272;26.932;2022-12-07T06:45:48;58.47;;;35.50;;
7965;SDS011;4028;43.272;26.932;2022-12-07T06:48:14;61.93;;;33.03;;
7965;SDS011;4028;43.272;26.932;2022-12-07T06:50:39;52.80;;;31.17;;
7965;SDS011;4028;43.272;26.932;2022-12-07T06:53:05;54.50;;;32.43;;
7965;SDS011;4028;43.272;26.932;2022-12-07T06:55:30;54.43;;;32.30;;
7965;SDS011;4028;43.272;26.932;2022-12-07T06:57:56;59.30;;;33.87;;
7965;SDS011;4028;43.272;26.932;2022-12-07T07:00:22;55.43;;;34.53;;
7965;SDS011;4028;43.272;26.932;2022-12-07T07:02:47;60.63;;;36.20;;
7965;SDS011;4028;43.272;26.932;2022-12-07T07:05:12;56.43;;;36.03;;
7965;SDS011;4028;43.272;26.932;2022-12-07T07:07:38;56.07;;;36.10;;
7965;SDS011;4028;43.272;26.932;2022-12-07T07:10:04;52.73;;;34.90;;
7965;SDS011;4028;43.272;26.932;2022-12-07T07:12:30;49.73;;;31.60;;
7965;SDS011;4028;43.272;26.932;2022-12-07T07:14:55;51.80;;;32.53;;
7965;SDS011;4028;43.272;26.932;2022-12-07T07:17:21;51.87;;;33.57;;
7965;SDS011;4028;43.272;26.932;2022-12-07T07:19:47;52.47;;;32.90;;
7965;SDS011;4028;43.272;26.932;2022-12-07T07:22:12;47.63;;;30.97;;
7965;SDS011;4028;43.272;26.932;2022-12-07T07:24:37;46.97;;;30.33;;
7965;SDS011;4028;43.272;26.932;2022-12-07T07:27:03;46.80;;;30.80;;
7965;SDS011;4028;43.272;26.932;2022-12-07T07:29:28;46.17;;;29.93;;
7965;SDS011;4028;43.272;26.932;2022-12-07T07:31:54;51.70;;;31.70;;
7965;SDS011;4028;43.272;26.932;2022-12-07T07:34:19;47.67;;;29.67;;
7965;SDS011;4028;43.272;26.932;2022-12-07T07:36:45;46.33;;;30.73;;
7965;SDS011;4028;43.272;26.932;2022-12-07T07:39:10;45.20;;;30.63;;
7965;SDS011;4028;43.272;26.932;2022-12-07T07:41:38;45.60;;;28.80;;
7965;SDS011;4028;43.272;26.932;2022-12-07T07:44:03;38.73;;;26.37;;
7965;SDS011;4028;43.272;26.932;2022-12-07T07:46:29;37.50;;;25.00;;
7965;SDS011;4028;43.272;26.932;2022-12-07T07:48:55;36.37;;;23.77;;
7965;SDS011;4028;43.272;26.932;2022-12-07T07:51:20;42.63;;;26.00;;
7965;SDS011;4028;43.272;26.932;2022-12-07T07:53:46;41.57;;;26.17;;
7965;SDS011;4028;43.272;26.932;2022-12-07T07:56:11;38.53;;;24.23;;
7965;SDS011;4028;43.272;26.932;2022-12-07T07:58:37;32.43;;;22.20;;
7965;SDS011;4028;43.272;26.932;2022-12-07T08:01:07;37.50;;;23.97;;
7965;SDS011;4028;43.272;26.932;2022-12-07T08:03:32;38.23;;;24.93;;
7965;SDS011;4028;43.272;26.932;2022-12-07T08:05:58;42.60;;;26.50;;
7965;SDS011;4028;43.272;26.932;2022-12-07T08:08:24;39.13;;;27.53;;
7965;SDS011;4028;43.272;26.932;2022-12-07T08:10:49;51.07;;;32.97;;
7965;SDS011;4028;43.272;26.932;2022-12-07T08:13:15;55.77;;;32.73;;
7965;SDS011;4028;43.272;26.932;2022-12-07T08:15:42;50.43;;;32.37;;
7965;SDS011;4028;43.272;26.932;2022-12-07T08:18:10;54.43;;;32.00;;
7965;SDS011;4028;43.272;26.932;2022-12-07T08:20:36;52.03;;;33.03;;
7965;SDS011;4028;43.272;26.932;2022-12-07T08:23:03;45.50;;;29.63;;
7965;SDS011;4028;43.272;26.932;2022-12-07T08:25:29;44.73;;;29.73;;
7965;SDS011;4028;43.272;26.932;2022-12-07T08:27:55;46.17;;;30.73;;
7965;SDS011;4028;43.272;26.932;2022-12-07T08:30:21;44.17;;;30.73;;
7965;SDS011;4028;43.272;26.932;2022-12-07T08:32:47;40.77;;;27.83;;
7965;SDS011;4028;43.272;26.932;2022-12-07T08:35:13;36.07;;;25.80;;
7965;SDS011;4028;43.272;26.932;2022-12-07T08:37:40;38.53;;;27.10;;
7965;SDS011;4028;43.272;26.932;2022-12-07T08:40:06;35.33;;;25.10;;
7965;SDS011;4028;43.272;26.932;2022-12-07T08:42:32;38.57;;;25.33;;
7965;SDS011;4028;43.272;26.932;2022-12-07T08:45:08;40.30;;;24.83;;
7965;SDS011;4028;43.272;26.932;2022-12-07T08:47:37;32.17;;;22.97;;
7965;SDS011;4028;43.272;26.932;2022-12-07T08:50:07;30.20;;;21.60;;
7965;SDS011;4028;43.272;26.932;2022-12-07T08:52:35;38.87;;;24.53;;
7965;SDS011;4028;43.272;26.932;2022-12-07T08:55:01;31.73;;;22.93;;
7965;SDS011;4028;43.272;26.932;2022-12-07T08:57:28;31.20;;;23.07;;
7965;SDS011;4028;43.272;26.932;2022-12-07T08:59:55;33.40;;;24.83;;
7965;SDS011;4028;43.272;26.932;2022-12-07T09:02:20;39.43;;;24.67;;
7965;SDS011;4028;43.272;26.932;2022-12-07T09:04:46;31.57;;;23.83;;
7965;SDS011;4028;43.272;26.932;2022-12-07T09:07:12;34.30;;;23.60;;
7965;SDS011;4028;43.272;26.932;2022-12-07T09:09:37;38.40;;;23.83;;
7965;SDS011;4028;43.272;26.932;2022-12-07T09:12:03;32.57;;;23.50;;
7965;SDS011;4028;43.272;26.932;2022-12-07T09:14:29;34.27;;;21.83;;
7965;SDS011;4028;43.272;26.932;2022-12-07T09:16:54;30.40;;;21.20;;
7965;SDS011;4028;43.272;26.932;2022-12-07T09:19:20;29.97;;;19.13;;
7965;SDS011;4028;43.272;26.932;2022-12-07T09:21:45;26.13;;;19.13;;
7965;SDS011;4028;43.272;26.932;2022-12-07T09:24:12;22.63;;;17.37;;
7965;SDS011;4028;43.272;26.932;2022-12-07T09:26:37;30.93;;;18.87;;
7965;SDS011;4028;43.272;26.932;2022-12-07T09:29:05;26.43;;;17.07;;
7965;SDS011;4028;43.272;26.932;2022-12-07T09:31:30;21.40;;;15.43;;
7965;SDS011;4028;43.272;26.932;2022-12-07T09:33:56;18.07;;;13.70;;
7965;SDS011;4028;43.272;26.932;2022-12-07T09:36:23;19.63;;;13.20;;
7965;SDS011;4028;43.272;26.932;2022-12-07T09:38:49;20.23;;;13.03;;
7965;SDS011;4028;43.272;26.932;2022-12-07T09:41:15;19.40;;;13.53;;
7965;SDS011;4028;43.272;26.932;2022-12-07T09:43:41;17.07;;;12.60;;
7965;SDS011;4028;43.272;26.932;2022-12-07T09:46:08;25.37;;;14.30;;
7965;SDS011;4028;43.272;26.932;2022-12-07T09:48:38;24.40;;;15.83;;
7965;SDS011;4028;43.272;26.932;2022-12-07T09:51:17;33.90;;;17.97;;
7965;SDS011;4028;43.272;26.932;2022-12-07T09:53:45;27.77;;;18.37;;
7965;SDS011;4028;43.272;26.932;2022-12-07T09:56:12;38.40;;;22.87;;
7965;SDS011;4028;43.272;26.932;2022-12-07T09:58:39;30.33;;;20.13;;
7965;SDS011;4028;43.272;26.932;2022-12-07T10:03:35;34.13;;;22.10;;
7965;SDS011;4028;43.272;26.932;2022-12-07T10:06:03;35.63;;;22.53;;
7965;SDS011;4028;43.272;26.932;2022-12-07T10:08:30;30.60;;;18.80;;
7965;SDS011;4028;43.272;26.932;2022-12-07T10:10:56;24.60;;;17.90;;
7965;SDS011;4028;43.272;26.932;2022-12-07T10:13:36;22.37;;;16.03;;
7965;SDS011;4028;43.272;26.932;2022-12-07T10:16:02;27.30;;;16.47;;
7965;SDS011;4028;43.272;26.932;2022-12-07T10:18:40;26.80;;;15.83;;
7965;SDS011;4028;43.272;26.932;2022-12-07T10:23:58;22.20;;;15.17;;
7965;SDS011;4028;43.272;26.932;2022-12-07T10:26:48;24.27;;;15.97;;
7965;SDS011;4028;43.272;26.932;2022-12-07T10:29:19;28.33;;;16.47;;
7965;SDS011;4028;43.272;26.932;2022-12-07T10:34:25;21.17;;;15.57;;
7965;SDS011;4028;43.272;26.932;2022-12-07T10:39:54;25.20;;;17.27;;
7965;SDS011;4028;43.272;26.932;2022-12-07T10:42:25;22.07;;;16.83;;
7965;SDS011;4028;43.272;26.932;2022-12-07T10:45:28;22.67;;;16.20;;
7965;SDS011;4028;43.272;26.932;2022-12-07T11:01:34;25.50;;;16.13;;
7965;SDS011;4028;43.272;26.932;2022-12-07T11:07:22;29.47;;;17.60;;
7965;SDS011;4028;43.272;26.932;2022-12-07T11:10:49;29.23;;;19.13;;
7965;SDS011;4028;43.272;26.932;2022-12-07T11:18:32;30.40;;;21.77;;
7965;SDS011;4028;43.272;26.932;2022-12-07T11:21:13;33.40;;;23.17;;
7965;SDS011;4028;43.272;26.932;2022-12-07T11:24:01;27.33;;;21.03;;
7965;SDS011;4028;43.272;26.932;2022-12-07T11:26:42;28.50;;;20.53;;
7965;SDS011;4028;43.272;26.932;2022-12-07T11:38:26;26.87;;;18.70;;
7965;SDS011;4028;43.272;26.932;2022-12-07T11:41:14;29.90;;;19.17;;
7965;SDS011;4028;43.272;26.932;2022-12-07T11:43:55;28.50;;;18.37;;
7965;SDS011;4028;43.272;26.932;2022-12-07T11:46:29;26.97;;;18.73;;
7965;SDS011;4028;43.272;26.932;2022-12-07T11:51:51;33.37;;;17.17;;
7965;SDS011;4028;43.272;26.932;2022-12-07T11:54:29;34.53;;;19.20;;
7965;SDS011;4028;43.272;26.932;2022-12-07T11:57:02;28.17;;;18.90;;
7965;SDS011;4028;43.272;26.932;2022-12-07T11:59:36;29.00;;;19.60;;
7965;SDS011;4028;43.272;26.932;2022-12-07T12:02:16;31.60;;;19.60;;
7965;SDS011;4028;43.272;26.932;2022-12-07T12:05:09;28.40;;;17.10;;
7965;SDS011;4028;43.272;26.932;2022-12-07T12:07:40;31.77;;;18.30;;
7965;SDS011;4028;43.272;26.932;2022-12-07T12:10:17;31.80;;;17.57;;
7965;SDS011;4028;43.272;26.932;2022-12-07T12:15:47;27.50;;;15.67;;
7965;SDS011;4028;43.272;26.932;2022-12-07T12:18:52;28.40;;;16.07;;
7965;SDS011;4028;43.272;26.932;2022-12-07T12:21:31;28.30;;;15.00;;
7965;SDS011;4028;43.272;26.932;2022-12-07T12:26:35;23.13;;;14.20;;
7965;SDS011;4028;43.272;26.932;2022-12-07T12:29:06;23.50;;;13.43;;
7965;SDS011;4028;43.272;26.932;2022-12-07T12:31:47;21.27;;;14.37;;
7965;SDS011;4028;43.272;26.932;2022-12-07T12:34:31;23.53;;;14.27;;
7965;SDS011;4028;43.272;26.932;2022-12-07T12:42:52;29.90;;;16.03;;
7965;SDS011;4028;43.272;26.932;2022-12-07T12:50:25;23.43;;;17.33;;
7965;SDS011;4028;43.272;26.932;2022-12-07T12:52:52;30.03;;;17.43;;
7965;SDS011;4028;43.272;26.932;2022-12-07T12:58:34;31.83;;;15.93;;
7965;SDS011;4028;43.272;26.932;2022-12-07T13:03:55;26.33;;;15.57;;
7965;SDS011;4028;43.272;26.932;2022-12-07T13:08:51;39.57;;;18.13;;
7965;SDS011;4028;43.272;26.932;2022-12-07T13:11:32;31.73;;;18.97;;
7965;SDS011;4028;43.272;26.932;2022-12-07T13:17:10;30.37;;;17.57;;
7965;SDS011;4028;43.272;26.932;2022-12-07T13:24:57;25.07;;;17.43;;
7965;SDS011;4028;43.272;26.932;2022-12-07T13:27:33;32.17;;;17.93;;
7965;SDS011;4028;43.272;26.932;2022-12-07T13:30:03;29.33;;;16.97;;
7965;SDS011;4028;43.272;26.932;2022-12-07T13:32:42;32.97;;;19.23;;
7965;SDS011;4028;43.272;26.932;2022-12-07T13:35:28;36.00;;;19.30;;
7965;SDS011;4028;43.272;26.932;2022-12-07T13:37:54;37.87;;;20.37;;
7965;SDS011;4028;43.272;26.932;2022-12-07T13:40:20;40.57;;;20.87;;
7965;SDS011;4028;43.272;26.932;2022-12-07T13:42:47;36.37;;;21.47;;
7965;SDS011;4028;43.272;26.932;2022-12-07T13:45:23;38.97;;;20.50;;
7965;SDS011;4028;43.272;26.932;2022-12-07T13:48:33;40.10;;;21.13;;
7965;SDS011;4028;43.272;26.932;2022-12-07T13:51:02;36.00;;;20.73;;
7965;SDS011;4028;43.272;26.932;2022-12-07T13:53:29;38.70;;;20.60;;
7965;SDS011;4028;43.272;26.932;2022-12-07T13:55:58;36.37;;;22.03;;
7965;SDS011;4028;43.272;26.932;2022-12-07T13:58:25;50.23;;;22.43;;
7965;SDS011;4028;43.272;26.932;2022-12-07T14:00:52;51.60;;;22.10;;
7965;SDS011;4028;43.272;26.932;2022-12-07T14:05:43;45.17;;;22.20;;
7965;SDS011;4028;43.272;26.932;2022-12-07T14:10:39;52.83;;;24.00;;
7965;SDS011;4028;43.272;26.932;2022-12-07T14:16:18;40.07;;;22.93;;
7965;SDS011;4028;43.272;26.932;2022-12-07T14:18:53;50.27;;;24.47;;
7965;SDS011;4028;43.272;26.932;2022-12-07T14:21:20;55.23;;;26.13;;
7965;SDS011;4028;43.272;26.932;2022-12-07T14:26:32;42.43;;;29.17;;
7965;SDS011;4028;43.272;26.932;2022-12-07T14:29:18;52.27;;;30.47;;
7965;SDS011;4028;43.272;26.932;2022-12-07T14:32:15;50.23;;;30.53;;
7965;SDS011;4028;43.272;26.932;2022-12-07T14:34:52;52.37;;;31.77;;
7965;SDS011;4028;43.272;26.932;2022-12-07T14:37:18;55.47;;;31.43;;
7965;SDS011;4028;43.272;26.932;2022-12-07T14:39:44;67.97;;;32.23;;
7965;SDS011;4028;43.272;26.932;2022-12-07T14:42:09;63.53;;;33.03;;
7965;SDS011;4028;43.272;26.932;2022-12-07T14:44:35;56.03;;;32.30;;
7965;SDS011;4028;43.272;26.932;2022-12-07T14:47:00;52.43;;;32.80;;
7965;SDS011;4028;43.272;26.932;2022-12-07T14:49:26;62.70;;;34.03;;
7965;SDS011;4028;43.272;26.932;2022-12-07T14:51:51;58.10;;;32.57;;
7965;SDS011;4028;43.272;26.932;2022-12-07T14:54:18;69.10;;;34.50;;
7965;SDS011;4028;43.272;26.932;2022-12-07T14:56:45;57.80;;;35.33;;
7965;SDS011;4028;43.272;26.932;2022-12-07T14:59:15;61.07;;;37.30;;
7965;SDS011;4028;43.272;26.932;2022-12-07T15:01:41;63.93;;;37.47;;
7965;SDS011;4028;43.272;26.932;2022-12-07T15:04:07;71.47;;;43.03;;
7965;SDS011;4028;43.272;26.932;2022-12-07T15:06:32;67.27;;;41.17;;
7965;SDS011;4028;43.272;26.932;2022-12-07T15:08:58;65.93;;;41.63;;
7965;SDS011;4028;43.272;26.932;2022-12-07T15:11:24;61.13;;;41.27;;
7965;SDS011;4028;43.272;26.932;2022-12-07T15:13:49;59.90;;;42.90;;
7965;SDS011;4028;43.272;26.932;2022-12-07T15:16:33;64.57;;;43.43;;
7965;SDS011;4028;43.272;26.932;2022-12-07T15:19:00;59.53;;;42.23;;
7965;SDS011;4028;43.272;26.932;2022-12-07T15:21:25;72.73;;;41.83;;
7965;SDS011;4028;43.272;26.932;2022-12-07T15:23:51;63.83;;;39.63;;
7965;SDS011;4028;43.272;26.932;2022-12-07T15:26:17;62.67;;;39.10;;
7965;SDS011;4028;43.272;26.932;2022-12-07T15:28:42;55.50;;;41.07;;
7965;SDS011;4028;43.272;26.932;2022-12-07T15:31:14;70.87;;;44.13;;
7965;SDS011;4028;43.272;26.932;2022-12-07T15:33:41;64.47;;;43.67;;
7965;SDS011;4028;43.272;26.932;2022-12-07T15:36:07;68.73;;;45.00;;
7965;SDS011;4028;43.272;26.932;2022-12-07T15:38:37;63.83;;;44.97;;
7965;SDS011;4028;43.272;26.932;2022-12-07T15:41:02;67.73;;;46.10;;
7965;SDS011;4028;43.272;26.932;2022-12-07T15:43:28;68.57;;;48.50;;
7965;SDS011;4028;43.272;26.932;2022-12-07T15:46:12;76.07;;;47.73;;
7965;SDS011;4028;43.272;26.932;2022-12-07T15:48:39;67.07;;;48.30;;
7965;SDS011;4028;43.272;26.932;2022-12-07T15:51:05;68.33;;;46.70;;
7965;SDS011;4028;43.272;26.932;2022-12-07T15:53:33;57.53;;;44.17;;
7965;SDS011;4028;43.272;26.932;2022-12-07T15:55:59;65.53;;;45.17;;
7965;SDS011;4028;43.272;26.932;2022-12-07T15:58:25;71.80;;;44.90;;
7965;SDS011;4028;43.272;26.932;2022-12-07T16:00:50;57.20;;;43.23;;
7965;SDS011;4028;43.272;26.932;2022-12-07T16:03:16;68.93;;;43.07;;
7965;SDS011;4028;43.272;26.932;2022-12-07T16:05:41;65.23;;;43.60;;
7965;SDS011;4028;43.272;26.932;2022-12-07T16:08:07;62.60;;;46.70;;
7965;SDS011;4028;43.272;26.932;2022-12-07T16:10:32;76.20;;;50.57;;
7965;SDS011;4028;43.272;26.932;2022-12-07T16:12:59;78.67;;;50.60;;
7965;SDS011;4028;43.272;26.932;2022-12-07T16:15:24;77.47;;;50.37;;
7965;SDS011;4028;43.272;26.932;2022-12-07T16:17:50;80.80;;;52.83;;
7965;SDS011;4028;43.272;26.932;2022-12-07T16:20:16;70.50;;;48.47;;
7965;SDS011;4028;43.272;26.932;2022-12-07T16:22:42;69.80;;;48.27;;
7965;SDS011;4028;43.272;26.932;2022-12-07T16:25:07;61.50;;;40.97;;
7965;SDS011;4028;43.272;26.932;2022-12-07T16:27:33;49.50;;;36.27;;
7965;SDS011;4028;43.272;26.932;2022-12-07T16:29:59;52.57;;;37.97;;
7965;SDS011;4028;43.272;26.932;2022-12-07T16:32:25;62.00;;;37.63;;
7965;SDS011;4028;43.272;26.932;2022-12-07T16:34:50;54.23;;;38.00;;
7965;SDS011;4028;43.272;26.932;2022-12-07T16:37:16;59.03;;;40.70;;
7965;SDS011;4028;43.272;26.932;2022-12-07T16:39:41;56.23;;;40.67;;
7965;SDS011;4028;43.272;26.932;2022-12-07T16:42:07;54.57;;;43.00;;
7965;SDS011;4028;43.272;26.932;2022-12-07T16:44:32;56.97;;;41.63;;
7965;SDS011;4028;43.272;26.932;2022-12-07T16:46:58;53.80;;;40.37;;
7965;SDS011;4028;43.272;26.932;2022-12-07T16:49:25;58.17;;;39.43;;
7965;SDS011;4028;43.272;26.932;2022-12-07T16:51:50;53.50;;;38.53;;
7965;SDS011;4028;43.272;26.932;2022-12-07T16:54:16;50.63;;;37.03;;